createdAt,value
2022-12-11T00:02:25.664Z,101070.41
2022-12-11T00:04:52.380Z,101065.25
2022-12-11T00:07:19.368Z,101076.81
2022-12-11T00:09:46.039Z,101076.75
2022-12-11T00:12:12.656Z,101075.03
2022-12-11T00:14:39.447Z,101070.50
2022-12-11T00:17:06.227Z,101067.94
2022-12-11T00:19:32.912Z,101057.31
2022-12-11T00:22:00.048Z,101052.81
2022-12-11T00:24:26.669Z,101053.91
2022-12-11T00:26:53.403Z,101065.38
2022-12-11T00:34:12.261Z,101065.03
2022-12-11T00:37:38.771Z,101071.72
2022-12-11T00:44:39.694Z,101075.47
2022-12-11T00:48:06.821Z,101075.22
2022-12-11T00:55:16.154Z,101063.53
2022-12-11T00:58:42.579Z,101063.53
2022-12-11T01:02:09.162Z,101049.38
2022-12-11T01:05:35.585Z,101059.13
2022-12-11T01:11:54.542Z,101053.22
2022-12-11T01:14:21.354Z,101054.97
2022-12-11T01:16:47.992Z,101054.13
2022-12-11T01:19:15.283Z,101046.06
2022-12-11T01:21:42.003Z,101043.38
2022-12-11T01:24:08.667Z,101048.84
2022-12-11T01:26:36.111Z,101043.50
2022-12-11T01:29:03.217Z,101054.22
2022-12-11T01:31:29.930Z,101051.66
2022-12-11T01:33:56.860Z,101046.28
2022-12-11T01:36:24.313Z,101046.38
2022-12-11T01:38:51.081Z,101050.66
2022-12-11T01:41:18.838Z,101056.91
2022-12-11T01:44:14.860Z,101046.06
2022-12-11T01:46:42.126Z,101055.72
2022-12-11T01:49:14.249Z,101043.91
2022-12-11T01:51:56.219Z,101041.03
2022-12-11T01:54:24.816Z,101039.94
2022-12-11T01:56:55.546Z,101044.44
2022-12-11T01:59:26.938Z,101043.47
2022-12-11T02:02:08.953Z,101031.97
2022-12-11T02:04:38.315Z,101033.50
2022-12-11T02:07:05.236Z,101033.19
2022-12-11T02:09:34.919Z,101030.06
2022-12-11T02:12:39.036Z,101030.72
2022-12-11T02:15:14.958Z,101034.16
2022-12-11T02:17:47.719Z,101043.47
2022-12-11T02:20:20.444Z,101051.09
2022-12-11T02:22:50.117Z,101050.56
2022-12-11T02:26:09.367Z,101051.63
2022-12-11T02:28:42.293Z,101050.88
2022-12-11T02:31:31.988Z,101055.84
2022-12-11T02:34:04.981Z,101055.50
2022-12-11T02:36:38.720Z,101056.25
2022-12-11T02:39:09.719Z,101062.38
2022-12-11T02:41:37.285Z,101063.31
2022-12-11T02:44:05.309Z,101058.72
2022-12-11T02:46:34.973Z,101063.97
2022-12-11T02:49:06.143Z,101062.88
2022-12-11T02:51:37.602Z,101066.31
2022-12-11T02:54:06.947Z,101067.16
2022-12-11T02:56:40.675Z,101062.69
2022-12-11T02:59:13.257Z,101058.16
2022-12-11T03:01:40.107Z,101057.31
2022-12-11T03:04:06.983Z,101050.13
2022-12-11T03:06:40.182Z,101049.28
2022-12-11T03:09:07.913Z,101053.75
2022-12-11T03:11:34.690Z,101045.72
2022-12-11T03:14:03.061Z,101046.69
2022-12-11T03:16:42.305Z,101052.06
2022-12-11T03:19:18.028Z,101048.63
2022-12-11T03:21:59.532Z,101048.50
2022-12-11T03:24:39.204Z,101045.09
2022-12-11T03:27:21.014Z,101051.31
2022-12-11T03:30:14.379Z,101051.41
2022-12-11T03:32:48.912Z,101043.47
2022-12-11T03:35:25.701Z,101038.22
2022-12-11T03:37:55.063Z,101047.22
2022-12-11T03:40:24.016Z,101036.72
2022-12-11T03:42:52.930Z,101036.06
2022-12-11T03:45:22.591Z,101041.56
2022-12-11T03:47:51.762Z,101042.50
2022-12-11T03:50:20.551Z,101033.72
2022-12-11T03:52:48.526Z,101040.03
2022-12-11T03:55:17.476Z,101043.69
2022-12-11T03:57:44.526Z,101045.41
2022-12-11T04:00:15.732Z,101040.16
2022-12-11T04:02:43.317Z,101049.06
2022-12-11T04:05:11.643Z,101041.22
2022-12-11T04:07:38.551Z,101043.81
2022-12-11T04:10:05.762Z,101038.53
2022-12-11T04:12:32.560Z,101041.13
2022-12-11T04:15:02.096Z,101032.44
2022-12-11T04:17:55.161Z,101038.66
2022-12-11T04:20:40.510Z,101039.31
2022-12-11T04:23:31.117Z,101034.69
2022-12-11T04:26:11.689Z,101039.94
2022-12-11T04:28:39.018Z,101034.78
2022-12-11T04:31:06.879Z,101036.09
2022-12-11T04:33:33.605Z,101041.44
2022-12-11T04:36:01.936Z,101036.84
2022-12-11T04:38:28.605Z,101035.97
2022-12-11T04:41:15.252Z,101034.16
2022-12-11T04:43:45.310Z,101028.88
2022-12-11T04:46:23.510Z,101026.66
2022-12-11T04:48:56.773Z,101017.94
2022-12-11T04:51:24.758Z,101019.56
2022-12-11T04:53:51.419Z,101019.56
2022-12-11T04:56:18.160Z,101009.91
2022-12-11T04:58:46.294Z,101016.84
2022-12-11T05:01:23.267Z,101021.03
2022-12-11T05:03:50.703Z,101030.44
2022-12-11T05:06:17.506Z,101024.31
2022-12-11T05:08:45.441Z,101028.91
2022-12-11T05:11:14.389Z,101035.34
2022-12-11T05:13:41.471Z,101044.13
2022-12-11T05:16:12.346Z,101044.38
2022-12-11T05:18:39.766Z,101048.03
2022-12-11T05:21:10.101Z,101049.22
2022-12-11T05:23:37.123Z,101046.88
2022-12-11T05:26:06.529Z,101046.59
2022-12-11T05:28:37.411Z,101042.75
2022-12-11T05:31:11.980Z,101036.41
2022-12-11T05:33:38.771Z,101046.91
2022-12-11T05:36:06.645Z,101045.09
2022-12-11T05:38:33.619Z,101040.47
2022-12-11T05:41:03.099Z,101051.09
2022-12-11T05:43:31.826Z,101052.81
2022-12-11T05:46:09.205Z,101059.13
2022-12-11T05:48:36.714Z,101056.38
2022-12-11T05:51:04.870Z,101065.34
2022-12-11T05:53:32.184Z,101065.66
2022-12-11T05:56:16.148Z,101067.38
2022-12-11T05:58:43.922Z,101059.03
2022-12-11T06:01:32.501Z,101058.94
2022-12-11T06:03:59.885Z,101051.63
2022-12-11T06:06:28.133Z,101053.47
2022-12-11T06:08:56.597Z,101049.78
2022-12-11T06:11:25.193Z,101052.81
2022-12-11T06:13:52.447Z,101053.66
2022-12-11T06:16:19.926Z,101059.75
2022-12-11T06:18:47.326Z,101062.28
2022-12-11T06:21:17.830Z,101062.03
2022-12-11T06:23:45.926Z,101065.03
2022-12-11T06:26:13.239Z,101070.84
2022-12-11T06:28:40.419Z,101062.50
2022-12-11T06:31:08.040Z,101077.28
2022-12-11T06:33:35.413Z,101061.66
2022-12-11T06:36:06.464Z,101069.50
2022-12-11T06:38:33.165Z,101058.25
2022-12-11T06:41:02.039Z,101063.09
2022-12-11T06:43:28.647Z,101060.00
2022-12-11T06:45:59.246Z,101057.09
2022-12-11T06:48:30.359Z,101059.34
2022-12-11T06:50:57.948Z,101061.06
2022-12-11T06:53:24.593Z,101054.75
2022-12-11T06:55:51.555Z,101050.00
2022-12-11T06:58:18.167Z,101051.75
2022-12-11T07:00:48.715Z,101054.41
2022-12-11T07:03:15.600Z,101052.81
2022-12-11T07:05:42.233Z,101048.44
2022-12-11T07:08:08.916Z,101048.72
2022-12-11T07:10:35.854Z,101044.88
2022-12-11T07:13:02.478Z,101048.94
2022-12-11T07:15:29.143Z,101048.94
2022-12-11T07:17:56.032Z,101043.59
2022-12-11T07:20:22.750Z,101044.31
2022-12-11T07:22:49.402Z,101043.59
2022-12-11T07:25:16.293Z,101054.31
2022-12-11T07:27:42.985Z,101056.13
2022-12-11T07:30:10.779Z,101062.34
2022-12-11T07:32:37.755Z,101057.72
2022-12-11T07:35:05.059Z,101060.94
2022-12-11T07:37:31.707Z,101066.00
2022-12-11T07:39:58.436Z,101059.78
2022-12-11T07:42:25.032Z,101056.56
2022-12-11T07:44:51.640Z,101057.94
2022-12-11T07:47:18.466Z,101059.53
2022-12-11T07:49:45.064Z,101068.19
2022-12-11T07:52:11.676Z,101068.72
2022-12-11T07:54:38.633Z,101073.75
2022-12-11T07:57:08.188Z,101075.00
2022-12-11T07:59:39.118Z,101076.28
2022-12-11T08:02:06.242Z,101076.44
2022-12-11T08:04:32.926Z,101078.50
2022-12-11T08:06:59.727Z,101081.38
2022-12-11T08:09:26.440Z,101079.09
2022-12-11T08:11:53.118Z,101076.72
2022-12-11T08:14:20.404Z,101068.97
2022-12-11T08:16:47.588Z,101073.56
2022-12-11T08:19:14.972Z,101068.22
2022-12-11T08:21:42.130Z,101066.97
2022-12-11T08:24:09.459Z,101080.59
2022-12-11T08:26:36.282Z,101078.28
2022-12-11T08:29:03.385Z,101082.25
2022-12-11T08:31:30.794Z,101082.72
2022-12-11T08:33:58.107Z,101087.13
2022-12-11T08:36:25.877Z,101092.59
2022-12-11T08:38:53.954Z,101090.97
2022-12-11T08:41:29.400Z,101091.06
2022-12-11T08:43:57.798Z,101093.84
2022-12-11T08:46:27.225Z,101093.19
2022-12-11T08:48:55.304Z,101100.38
2022-12-11T08:51:24.543Z,101097.78
2022-12-11T08:53:51.939Z,101100.56
2022-12-11T08:56:20.752Z,101100.66
2022-12-11T08:58:48.023Z,101103.53
2022-12-11T09:01:18.043Z,101100.97
2022-12-11T09:03:45.003Z,101108.91
2022-12-11T09:06:14.596Z,101110.22
2022-12-11T09:08:46.016Z,101112.59
2022-12-11T09:11:21.614Z,101114.09
2022-12-11T09:13:48.579Z,101112.84
2022-12-11T09:16:17.715Z,101120.47
2022-12-11T09:18:50.482Z,101120.28
2022-12-11T09:21:19.847Z,101125.16
2022-12-11T09:23:47.219Z,101114.06
2022-12-11T09:26:16.623Z,101113.72
2022-12-11T09:28:46.564Z,101111.94
2022-12-11T09:31:16.306Z,101115.25
2022-12-11T09:33:43.438Z,101110.66
2022-12-11T09:36:12.009Z,101121.44
2022-12-11T09:38:39.252Z,101123.91
2022-12-11T09:41:38.509Z,101121.78
2022-12-11T09:44:11.075Z,101122.53
2022-12-11T09:46:42.494Z,101118.03
2022-12-11T09:49:27.217Z,101120.25
2022-12-11T09:52:00.612Z,101115.16
2022-12-11T09:54:27.399Z,101109.97
2022-12-11T09:57:09.589Z,101109.41
2022-12-11T10:00:05.635Z,101111.22
2022-12-11T10:02:59.327Z,101108.66
2022-12-11T10:05:31.837Z,101110.09
2022-12-11T10:08:11.873Z,101111.47
2022-12-11T10:10:43.491Z,101116.47
2022-12-11T10:13:30.738Z,101110.22
2022-12-11T10:16:10.616Z,101114.75
2022-12-11T10:18:38.799Z,101116.78
2022-12-11T10:21:05.968Z,101120.34
2022-12-11T10:23:38.301Z,101118.75
2022-12-11T10:26:10.602Z,101121.69
2022-12-11T10:28:37.351Z,101120.94
2022-12-11T10:31:40.885Z,101122.56
2022-12-11T10:34:14.973Z,101117.94
2022-12-11T10:36:43.478Z,101115.78
2022-12-11T10:39:22.279Z,101113.41
2022-12-11T10:41:54.320Z,101108.25
2022-12-11T10:44:22.353Z,101108.47
2022-12-11T10:47:02.561Z,101112.97
2022-12-11T10:49:31.558Z,101115.44
2022-12-11T10:52:01.596Z,101116.75
2022-12-11T10:54:38.436Z,101111.72
2022-12-11T10:57:08.419Z,101113.22
2022-12-11T10:59:47.419Z,101101.63
2022-12-11T11:02:31.000Z,101102.59
2022-12-11T11:05:00.078Z,101108.91
2022-12-11T11:07:28.567Z,101109.88
2022-12-11T11:10:11.529Z,101109.66
2022-12-11T11:12:43.731Z,101117.19
2022-12-11T11:15:15.602Z,101111.09
2022-12-11T11:17:54.547Z,101110.41
2022-12-11T11:20:27.935Z,101111.81
2022-12-11T11:22:57.738Z,101105.69
2022-12-11T11:25:30.264Z,101111.28
2022-12-11T11:28:15.617Z,101094.75
2022-12-11T11:30:54.077Z,101099.59
2022-12-11T11:33:23.142Z,101104.31
2022-12-11T11:35:59.464Z,101100.03
2022-12-11T11:38:39.169Z,101109.03
2022-12-11T11:41:15.739Z,101104.50
2022-12-11T11:43:49.086Z,101100.88
2022-12-11T11:46:24.705Z,101107.75
2022-12-11T11:49:04.326Z,101098.50
2022-12-11T11:51:37.443Z,101098.50
2022-12-11T11:54:17.343Z,101091.97
2022-12-11T11:56:45.575Z,101093.25
2022-12-11T11:59:31.733Z,101091.00
2022-12-11T12:01:59.307Z,101093.34
2022-12-11T12:04:32.128Z,101096.66
2022-12-11T12:07:11.007Z,101086.78
2022-12-11T12:09:52.725Z,101087.84
2022-12-11T12:12:37.249Z,101080.69
2022-12-11T12:15:21.906Z,101083.38
2022-12-11T12:18:10.244Z,101084.31
2022-12-11T12:21:14.618Z,101084.00
2022-12-11T12:23:56.485Z,101077.44
2022-12-11T12:26:31.866Z,101079.16
2022-12-11T12:29:36.335Z,101074.63
2022-12-11T12:32:23.459Z,101075.50
2022-12-11T12:35:06.484Z,101068.31
2022-12-11T12:38:20.746Z,101066.59
2022-12-11T12:41:02.766Z,101054.88
2022-12-11T12:43:51.192Z,101055.72
2022-12-11T12:46:49.973Z,101052.97
2022-12-11T12:49:39.607Z,101059.72
2022-12-11T12:52:14.502Z,101052.56
2022-12-11T12:55:05.071Z,101057.56
2022-12-11T12:57:35.358Z,101050.03
2022-12-11T13:00:02.319Z,101058.59
2022-12-11T13:02:30.079Z,101059.16
2022-12-11T13:05:01.041Z,101057.69
2022-12-11T13:07:31.780Z,101057.47
2022-12-11T13:10:07.292Z,101062.72
2022-12-11T13:12:44.604Z,101056.34
2022-12-11T13:15:30.123Z,101057.94
2022-12-11T13:17:57.414Z,101061.69
2022-12-11T13:20:27.478Z,101061.72
2022-12-11T13:23:11.469Z,101067.56
2022-12-11T13:25:50.225Z,101069.44
2022-12-11T13:28:34.790Z,101067.47
2022-12-11T13:31:22.897Z,101072.31
2022-12-11T13:33:52.515Z,101063.84
2022-12-11T13:36:34.097Z,101064.44
2022-12-11T13:39:18.727Z,101065.94
2022-12-11T13:41:53.931Z,101062.97
2022-12-11T13:44:29.171Z,101061.47
2022-12-11T13:46:59.120Z,101067.72
2022-12-11T13:49:35.376Z,101062.13
2022-12-11T13:52:02.583Z,101064.88
2022-12-11T13:54:31.297Z,101071.50
2022-12-11T13:57:17.455Z,101059.25
2022-12-11T13:59:50.277Z,101062.19
2022-12-11T14:02:32.558Z,101058.88
2022-12-11T14:05:08.344Z,101062.66
2022-12-11T14:07:39.128Z,101056.41
2022-12-11T14:10:13.556Z,101060.94
2022-12-11T14:12:48.262Z,101049.66
2022-12-11T14:15:15.907Z,101052.91
2022-12-11T14:17:48.476Z,101051.75
2022-12-11T14:20:21.950Z,101055.13
2022-12-11T14:22:48.591Z,101053.31
2022-12-11T14:25:26.788Z,101062.00
2022-12-11T14:27:56.336Z,101067.94
2022-12-11T14:30:23.036Z,101075.97
2022-12-11T14:32:50.876Z,101069.22
2022-12-11T14:35:40.233Z,101069.03
2022-12-11T14:38:37.665Z,101075.69
2022-12-11T14:41:13.039Z,101070.44
2022-12-11T14:44:07.402Z,101072.66
2022-12-11T14:46:44.072Z,101070.84
2022-12-11T14:49:24.755Z,101083.63
2022-12-11T14:51:55.218Z,101086.81
2022-12-11T14:54:38.286Z,101075.34
2022-12-11T14:57:06.738Z,101066.31
2022-12-11T14:59:41.595Z,101068.56
2022-12-11T15:02:23.894Z,101064.72
2022-12-11T15:05:14.586Z,101062.91
2022-12-11T15:07:56.149Z,101064.94
2022-12-11T15:10:37.126Z,101058.94
2022-12-11T15:13:08.268Z,101060.09
2022-12-11T15:15:47.766Z,101061.63
2022-12-11T15:18:26.122Z,101059.16
2022-12-11T15:21:09.611Z,101066.44
2022-12-11T15:23:57.113Z,101059.66
2022-12-11T15:26:44.720Z,101051.22
2022-12-11T15:29:43.534Z,101052.81
2022-12-11T15:32:10.451Z,101064.06
2022-12-11T15:34:46.313Z,101067.81
2022-12-11T15:37:26.316Z,101073.38
2022-12-11T15:39:54.635Z,101077.03
2022-12-11T15:42:34.777Z,101077.88
2022-12-11T15:45:01.932Z,101070.59
2022-12-11T15:47:30.359Z,101061.78
2022-12-11T15:50:03.367Z,101066.31
2022-12-11T15:52:29.996Z,101066.41
2022-12-11T15:54:56.607Z,101063.94
2022-12-11T15:57:24.873Z,101059.53
2022-12-11T15:59:54.406Z,101068.66
2022-12-11T16:02:21.645Z,101065.84
2022-12-11T16:04:48.650Z,101053.13
2022-12-11T16:07:21.227Z,101057.72
2022-12-11T16:09:48.562Z,101066.06
2022-12-11T16:12:16.353Z,101065.41
2022-12-11T16:14:44.578Z,101067.97
2022-12-11T16:17:13.043Z,101072.00
2022-12-11T16:19:41.620Z,101076.34
2022-12-11T16:22:09.177Z,101076.91
2022-12-11T16:24:37.009Z,101076.69
2022-12-11T16:27:04.822Z,101067.59
2022-12-11T16:29:38.947Z,101068.25
2022-12-11T16:32:08.317Z,101066.31
2022-12-11T16:34:36.101Z,101064.59
2022-12-11T16:37:02.903Z,101069.00
2022-12-11T16:39:29.642Z,101067.81
2022-12-11T16:41:56.349Z,101061.50
2022-12-11T16:44:26.139Z,101062.03
2022-12-11T16:46:54.066Z,101061.72
2022-12-11T16:49:21.003Z,101066.75
2022-12-11T16:51:49.452Z,101059.38
2022-12-11T16:54:16.614Z,101069.75
2022-12-11T16:56:43.843Z,101066.97
2022-12-11T16:59:11.256Z,101070.44
2022-12-11T17:01:37.973Z,101064.94
2022-12-11T17:04:04.783Z,101067.81
2022-12-11T17:06:31.958Z,101068.69
2022-12-11T17:08:58.780Z,101069.44
2022-12-11T17:11:26.286Z,101070.44
2022-12-11T17:13:57.745Z,101069.66
2022-12-11T17:16:26.660Z,101066.97
2022-12-11T17:18:53.764Z,101073.41
2022-12-11T17:21:22.396Z,101075.97
2022-12-11T17:23:49.868Z,101076.84
2022-12-11T17:26:17.081Z,101071.50
2022-12-11T17:28:44.238Z,101067.19
2022-12-11T17:31:17.220Z,101072.34
2022-12-11T17:33:44.863Z,101069.75
2022-12-11T17:36:17.067Z,101061.84
2022-12-11T17:38:43.809Z,101068.03
2022-12-11T17:41:19.810Z,101069.03
2022-12-11T17:43:49.090Z,101059.03
2022-12-11T17:46:16.085Z,101066.13
2022-12-11T17:48:43.098Z,101067.81
2022-12-11T17:51:11.983Z,101075.88
2022-12-11T17:53:38.900Z,101066.97
2022-12-11T17:56:07.977Z,101079.44
2022-12-11T17:58:35.312Z,101074.28
2022-12-11T18:01:07.185Z,101073.50
2022-12-11T18:03:33.873Z,101066.44
2022-12-11T18:06:08.815Z,101063.75
2022-12-11T18:08:35.815Z,101062.91
2022-12-11T18:11:11.672Z,101063.00
2022-12-11T18:13:38.855Z,101059.56
2022-12-11T18:16:17.683Z,101070.50
2022-12-11T18:18:46.364Z,101064.53
2022-12-11T18:21:16.141Z,101068.91
2022-12-11T18:23:43.154Z,101059.91
2022-12-11T18:26:11.248Z,101053.69
2022-12-11T18:28:37.923Z,101056.47
2022-12-11T18:31:05.384Z,101057.53
2022-12-11T18:33:32.314Z,101058.38
2022-12-11T18:35:58.921Z,101060.13
2022-12-11T18:38:25.998Z,101054.75
2022-12-11T18:40:52.656Z,101048.44
2022-12-11T18:43:19.346Z,101053.78
2022-12-11T18:45:46.463Z,101056.47
2022-12-11T18:48:14.282Z,101055.81
2022-12-11T18:50:49.776Z,101053.25
2022-12-11T18:53:17.447Z,101050.69
2022-12-11T18:55:45.682Z,101056.88
2022-12-11T18:58:14.634Z,101049.78
2022-12-11T19:00:41.939Z,101047.88
2022-12-11T19:03:09.864Z,101052.19
2022-12-11T19:05:37.363Z,101053.97
2022-12-11T19:08:04.373Z,101052.28
2022-12-11T19:10:31.037Z,101047.03
2022-12-11T19:12:58.039Z,101051.53
2022-12-11T19:15:24.745Z,101046.38
2022-12-11T19:17:51.556Z,101049.06
2022-12-11T19:20:47.529Z,101055.25
2022-12-11T19:23:05.740Z,101058.81
2022-12-11T19:25:33.089Z,101053.34
2022-12-11T19:27:59.724Z,101051.00
2022-12-11T19:30:26.512Z,101046.38
2022-12-11T19:32:53.511Z,101044.75
2022-12-11T19:35:20.167Z,101046.81
2022-12-11T19:37:46.908Z,101045.09
2022-12-11T19:40:14.698Z,101045.31
2022-12-11T19:42:41.657Z,101043.59
2022-12-11T19:45:08.740Z,101043.59
2022-12-11T19:47:37.193Z,101039.94
2022-12-11T19:50:04.105Z,101044.22
2022-12-11T19:52:30.829Z,101038.78
2022-12-11T19:55:02.034Z,101035.31
2022-12-11T19:57:28.771Z,101035.00
2022-12-11T19:59:57.369Z,101037.34
2022-12-11T20:02:24.540Z,101036.81
2022-12-11T20:04:51.379Z,101036.72
2022-12-11T20:07:19.118Z,101041.00
2022-12-11T20:09:46.782Z,101040.91
2022-12-11T20:12:13.575Z,101038.09
2022-12-11T20:14:40.353Z,101041.63
2022-12-11T20:17:12.546Z,101040.69
2022-12-11T20:19:43.784Z,101039.84
2022-12-11T20:22:13.269Z,101038.09
2022-12-11T20:24:40.438Z,101027.50
2022-12-11T20:27:07.330Z,101036.59
2022-12-11T20:29:34.332Z,101028.97
2022-12-11T20:32:01.278Z,101044.28
2022-12-11T20:34:31.417Z,101036.25
2022-12-11T20:37:00.634Z,101032.63
2022-12-11T20:39:27.523Z,101038.63
2022-12-11T20:41:54.215Z,101039.28
2022-12-11T20:44:23.950Z,101033.72
2022-12-11T20:46:51.054Z,101027.38
2022-12-11T20:49:17.733Z,101037.16
2022-12-11T20:51:45.541Z,101036.94
2022-12-11T20:54:12.472Z,101034.16
2022-12-11T20:56:39.302Z,101036.72
2022-12-11T20:59:07.477Z,101031.13
2022-12-11T21:01:35.120Z,101032.22
2022-12-11T21:04:02.194Z,101035.22
2022-12-11T21:06:32.874Z,101036.38
2022-12-11T21:09:01.664Z,101030.91
2022-12-11T21:11:28.804Z,101034.66
2022-12-11T21:13:56.179Z,101034.78
2022-12-11T21:16:23.998Z,101040.22
2022-12-11T21:18:51.075Z,101036.03
2022-12-11T21:21:18.473Z,101049.56
2022-12-11T21:23:45.417Z,101043.13
2022-12-11T21:26:12.914Z,101042.25
2022-12-11T21:29:39.677Z,101040.44
2022-12-11T21:32:14.511Z,101042.34
2022-12-11T21:35:42.942Z,101042.19
2022-12-11T21:39:09.702Z,101046.44
2022-12-11T21:42:36.642Z,101053.53
2022-12-11T21:46:07.706Z,101053.75
2022-12-11T21:49:34.682Z,101052.97
2022-12-11T21:52:01.467Z,101046.03
2022-12-11T21:55:28.688Z,101046.03
2022-12-11T22:02:15.235Z,101046.53
2022-12-11T22:05:24.347Z,101043.75
2022-12-11T22:08:51.462Z,101048.16
2022-12-11T22:12:20.975Z,101041.06
2022-12-11T22:15:49.785Z,101047.59
2022-12-11T22:18:16.836Z,101035.56
2022-12-11T22:21:43.809Z,101037.69
2022-12-11T22:25:10.638Z,101039.06
2022-12-11T22:28:37.769Z,101038.97
2022-12-11T22:35:04.811Z,101044.03
2022-12-11T22:38:16.865Z,101042.88
2022-12-11T22:41:42.276Z,101044.47
2022-12-11T22:45:14.997Z,101043.41
2022-12-11T22:53:16.633Z,101047.19
2022-12-11T22:56:23.403Z,101048.03
2022-12-11T23:03:42.483Z,101048.03
2022-12-11T23:07:09.108Z,101048.03
2022-12-11T23:09:36.086Z,101046.31
2022-12-11T23:16:54.830Z,101048.16
2022-12-11T23:20:21.450Z,101046.75
2022-12-11T23:27:31.041Z,101048.00
2022-12-11T23:30:25.484Z,101047.25
2022-12-11T23:33:34.847Z,101044.78
2022-12-11T23:39:43.932Z,101034.78
2022-12-11T23:42:10.713Z,101031.34
2022-12-11T23:44:37.363Z,101033.19
2022-12-11T23:47:04.227Z,101032.97
2022-12-11T23:49:30.833Z,101036.41
2022-12-11T23:51:57.462Z,101031.81
2022-12-11T23:54:24.577Z,101034.28
2022-12-11T23:56:51.168Z,101028.72
2022-12-11T23:59:18.285Z,101027.53
